createdAt,value
2023-05-21T00:00:37.780Z,94182.22
2023-05-21T00:03:05.464Z,94172.41
2023-05-21T00:05:32.993Z,94169.13
2023-05-21T00:08:00.570Z,94168.69
2023-05-21T00:10:27.051Z,94172.41
2023-05-21T00:12:53.570Z,94174.25
2023-05-21T00:15:20.031Z,94177.09
2023-05-21T00:17:46.516Z,94172.81
2023-05-21T00:20:13.511Z,94170.34
2023-05-21T00:22:40.400Z,94163.41
2023-05-21T00:25:06.878Z,94165.28
2023-05-21T00:27:33.308Z,94166.06
2023-05-21T00:29:59.802Z,94154.84
2023-05-21T00:32:26.316Z,94163.22
2023-05-21T00:34:53.005Z,94162.38
2023-05-21T00:37:20.598Z,94160.97
2023-05-21T00:39:47.258Z,94163.63
2023-05-21T00:42:13.710Z,94155.88
2023-05-21T00:44:40.186Z,94157.50
2023-05-21T00:47:07.024Z,94161.59
2023-05-21T00:49:33.631Z,94149.97
2023-05-21T00:52:00.183Z,94146.28
2023-05-21T00:54:26.677Z,94146.69
2023-05-21T00:56:53.400Z,94139.53
2023-05-21T00:59:20.048Z,94144.47
2023-05-21T01:01:47.616Z,94141.41
2023-05-21T01:04:14.200Z,94141.00
2023-05-21T01:06:40.652Z,94139.78
2023-05-21T01:09:07.415Z,94138.56
2023-05-21T01:11:33.992Z,94141.22
2023-05-21T01:14:01.513Z,94139.56
2023-05-21T01:16:30.152Z,94136.31
2023-05-21T01:18:57.760Z,94131.59
2023-05-21T01:21:25.325Z,94132.84
2023-05-21T01:23:52.141Z,94134.69
2023-05-21T01:26:18.607Z,94133.22
2023-05-21T01:28:46.059Z,94139.34
2023-05-21T01:31:12.585Z,94135.88
2023-05-21T01:33:39.201Z,94138.34
2023-05-21T01:36:06.838Z,94135.50
2023-05-21T01:38:33.435Z,94136.72
2023-05-21T01:41:01.028Z,94137.13
2023-05-21T01:43:27.547Z,94128.13
2023-05-21T01:45:54.235Z,94131.81
2023-05-21T01:48:20.726Z,94124.25
2023-05-21T01:50:47.180Z,94128.94
2023-05-21T01:53:13.659Z,94124.06
2023-05-21T01:55:40.550Z,94122.81
2023-05-21T01:58:07.053Z,94124.47
2023-05-21T02:00:33.719Z,94114.66
2023-05-21T02:03:00.369Z,94124.47
2023-05-21T02:05:27.963Z,94123.66
2023-05-21T02:07:54.436Z,94129.78
2023-05-21T02:10:20.915Z,94124.84
2023-05-21T02:12:47.386Z,94129.38
2023-05-21T02:15:13.854Z,94127.50
2023-05-21T02:17:40.364Z,94127.13
2023-05-21T02:20:06.837Z,94126.28
2023-05-21T02:22:33.316Z,94116.31
2023-05-21T02:24:59.749Z,94118.13
2023-05-21T02:27:26.201Z,94123.06
2023-05-21T02:29:52.775Z,94116.28
2023-05-21T02:32:19.223Z,94120.41
2023-05-21T02:34:45.656Z,94126.72
2023-05-21T02:37:12.168Z,94127.31
2023-05-21T02:39:38.689Z,94121.19
2023-05-21T02:42:05.213Z,94119.34
2023-05-21T02:44:32.366Z,94116.69
2023-05-21T02:46:58.844Z,94117.50
2023-05-21T02:49:25.298Z,94115.06
2023-05-21T02:51:51.792Z,94117.72
2023-05-21T02:54:18.242Z,94114.25
2023-05-21T02:56:44.705Z,94114.47
2023-05-21T02:59:11.175Z,94113.03
2023-05-21T03:01:37.710Z,94116.69
2023-05-21T03:04:04.424Z,94112.44
2023-05-21T03:06:31.641Z,94116.91
2023-05-21T03:08:59.248Z,94114.03
2023-05-21T03:11:25.821Z,94101.59
2023-05-21T03:13:53.414Z,94100.56
2023-05-21T03:16:19.924Z,94109.16
2023-05-21T03:18:46.638Z,94106.28
2023-05-21T03:21:13.212Z,94107.31
2023-05-21T03:23:41.781Z,94107.09
2023-05-21T03:26:08.252Z,94102.59
2023-05-21T03:28:34.705Z,94102.22
2023-05-21T03:31:01.208Z,94106.06
2023-05-21T03:33:27.709Z,94109.16
2023-05-21T03:35:54.767Z,94108.97
2023-05-21T03:38:22.341Z,94108.97
2023-05-21T03:40:48.934Z,94117.50
2023-05-21T03:43:15.524Z,94118.34
2023-05-21T03:45:44.540Z,94120.59
2023-05-21T03:48:11.727Z,94119.34
2023-05-21T03:50:38.345Z,94127.94
2023-05-21T03:53:04.838Z,94126.69
2023-05-21T03:55:31.313Z,94123.66
2023-05-21T03:57:57.789Z,94124.03
2023-05-21T04:00:24.634Z,94127.91
2023-05-21T04:02:51.393Z,94124.03
2023-05-21T04:05:17.923Z,94128.72
2023-05-21T04:07:45.401Z,94125.25
2023-05-21T04:10:13.028Z,94127.31
2023-05-21T04:12:40.592Z,94136.72
2023-05-21T04:15:07.188Z,94131.19
2023-05-21T04:17:33.796Z,94132.44
2023-05-21T04:20:00.322Z,94142.66
2023-05-21T04:22:27.977Z,94139.78
2023-05-21T04:24:55.523Z,94144.66
2023-05-21T04:27:24.121Z,94140.16
2023-05-21T04:29:50.849Z,94151.41
2023-05-21T04:32:17.360Z,94157.34
2023-05-21T04:34:44.897Z,94152.63
2023-05-21T04:37:11.346Z,94156.72
2023-05-21T04:39:37.792Z,94167.34
2023-05-21T04:42:04.248Z,94165.50
2023-05-21T04:44:30.690Z,94168.97
2023-05-21T04:46:57.194Z,94173.06
2023-05-21T04:49:23.685Z,94174.31
2023-05-21T04:51:51.129Z,94182.03
2023-05-21T04:54:18.701Z,94182.66
2023-05-21T04:56:45.285Z,94191.63
2023-05-21T04:59:11.797Z,94192.06
2023-05-21T05:01:38.283Z,94189.19
2023-05-21T05:04:05.099Z,94194.31
2023-05-21T05:06:31.564Z,94189.41
2023-05-21T05:08:58.219Z,94188.19
2023-05-21T05:11:24.701Z,94189.22
2023-05-21T05:13:51.208Z,94181.66
2023-05-21T05:16:17.762Z,94184.31
2023-05-21T05:18:44.237Z,94182.25
2023-05-21T05:21:10.740Z,94188.81
2023-05-21T05:23:37.235Z,94187.75
2023-05-21T05:26:04.357Z,94186.94
2023-05-21T05:28:30.822Z,94187.31
2023-05-21T05:30:57.322Z,94183.84
2023-05-21T05:33:24.182Z,94179.75
2023-05-21T05:35:51.732Z,94179.56
2023-05-21T05:38:18.253Z,94190.41
2023-05-21T05:40:44.791Z,94186.72
2023-05-21T05:43:11.249Z,94196.72
2023-05-21T05:45:38.678Z,94187.94
2023-05-21T05:48:05.463Z,94193.00
2023-05-21T05:50:32.003Z,94189.91
2023-05-21T05:52:58.457Z,94192.78
2023-05-21T05:55:24.942Z,94192.97
2023-05-21T05:57:51.415Z,94195.19
2023-05-21T06:00:18.733Z,94201.94
2023-05-21T06:02:45.419Z,94200.31
2023-05-21T06:05:12.918Z,94201.50
2023-05-21T06:07:39.417Z,94202.50
2023-05-21T06:10:06.073Z,94200.44
2023-05-21T06:12:32.513Z,94195.69
2023-05-21T06:14:59.262Z,94198.78
2023-05-21T06:17:25.923Z,94196.31
2023-05-21T06:19:53.462Z,94191.00
2023-05-21T06:22:20.041Z,94200.81
2023-05-21T06:24:46.536Z,94194.81
2023-05-21T06:27:13.230Z,94195.34
2023-05-21T06:29:39.723Z,94193.44
2023-05-21T06:32:06.238Z,94203.78
2023-05-21T06:34:32.685Z,94208.63
2023-05-21T06:36:59.172Z,94205.13
2023-05-21T06:39:26.212Z,94206.09
2023-05-21T06:41:52.725Z,94205.06
2023-05-21T06:44:19.203Z,94206.91
2023-05-21T06:46:45.721Z,94205.06
2023-05-21T06:49:14.146Z,94197.28
2023-05-21T06:51:40.843Z,94193.84
2023-05-21T06:54:07.287Z,94191.16
2023-05-21T06:56:34.343Z,94194.84
2023-05-21T06:59:00.931Z,94187.84
2023-05-21T07:01:28.655Z,94192.69
2023-05-21T07:03:56.140Z,94192.19
2023-05-21T07:06:23.717Z,94192.28
2023-05-21T07:08:50.294Z,94198.38
2023-05-21T07:11:16.751Z,94194.84
2023-05-21T07:13:43.249Z,94198.91
2023-05-21T07:16:09.819Z,94200.31
2023-05-21T07:18:36.409Z,94204.41
2023-05-21T07:21:04.283Z,94199.66
2023-05-21T07:23:31.885Z,94201.31
2023-05-21T07:26:00.654Z,94204.19
2023-05-21T07:28:28.086Z,94197.22
2023-05-21T07:30:55.707Z,94202.53
2023-05-21T07:33:22.264Z,94200.69
2023-05-21T07:35:48.751Z,94199.66
2023-05-21T07:38:15.433Z,94197.00
2023-05-21T07:40:43.033Z,94194.38
2023-05-21T07:43:09.541Z,94197.66
2023-05-21T07:45:36.402Z,94192.69
2023-05-21T07:48:03.866Z,94190.19
2023-05-21T07:50:30.605Z,94194.22
2023-05-21T07:52:57.108Z,94191.69
2023-05-21T07:55:23.597Z,94192.00
2023-05-21T07:57:50.355Z,94188.03
2023-05-21T08:00:18.957Z,94187.72
2023-05-21T08:02:45.637Z,94187.63
2023-05-21T08:05:12.264Z,94190.44
2023-05-21T08:07:38.777Z,94192.44
2023-05-21T08:10:05.251Z,94199.78
2023-05-21T08:12:31.770Z,94201.41
2023-05-21T08:14:58.251Z,94197.84
2023-05-21T08:17:25.133Z,94196.78
2023-05-21T08:19:52.725Z,94199.22
2023-05-21T08:22:19.186Z,94197.56
2023-05-21T08:24:45.960Z,94204.69
2023-05-21T08:27:12.954Z,94200.88
2023-05-21T08:29:39.442Z,94206.09
2023-05-21T08:32:06.786Z,94203.69
2023-05-21T08:34:33.339Z,94209.50
2023-05-21T08:37:00.838Z,94196.13
2023-05-21T08:39:28.410Z,94196.00
2023-05-21T08:41:57.228Z,94208.97
2023-05-21T08:44:24.605Z,94206.22
2023-05-21T08:46:51.183Z,94200.72
2023-05-21T08:49:17.633Z,94206.19
2023-05-21T08:51:45.372Z,94206.97
2023-05-21T08:54:11.976Z,94202.06
2023-05-21T08:56:38.587Z,94202.66
2023-05-21T08:59:05.094Z,94208.53
2023-05-21T09:01:32.794Z,94202.94
2023-05-21T09:04:12.185Z,94195.06
2023-05-21T09:06:47.007Z,94202.97
2023-05-21T09:09:13.488Z,94203.88
2023-05-21T09:11:40.231Z,94209.88
2023-05-21T09:14:06.732Z,94203.06
2023-05-21T09:16:33.521Z,94206.69
2023-05-21T09:19:03.764Z,94210.50
2023-05-21T09:21:31.002Z,94204.13
2023-05-21T09:23:58.286Z,94209.88
2023-05-21T09:26:25.910Z,94198.41
2023-05-21T09:28:53.457Z,94209.47
2023-05-21T09:31:19.948Z,94205.59
2023-05-21T09:33:46.422Z,94208.94
2023-05-21T09:36:12.969Z,94214.31
2023-05-21T09:38:39.457Z,94216.25
2023-05-21T09:41:05.953Z,94213.66
2023-05-21T09:43:32.477Z,94219.03
2023-05-21T09:46:01.321Z,94220.97
2023-05-21T09:48:29.194Z,94217.06
2023-05-21T09:50:55.650Z,94217.06
2023-05-21T09:53:22.112Z,94217.06
2023-05-21T09:55:48.580Z,94215.69
2023-05-21T09:58:15.057Z,94216.56
2023-05-21T10:00:41.533Z,94212.56
2023-05-21T10:03:08.024Z,94209.69
2023-05-21T10:05:34.568Z,94206.56
2023-05-21T10:08:02.003Z,94197.00
2023-05-21T10:10:29.533Z,94202.97
2023-05-21T10:12:56.064Z,94199.84
2023-05-21T10:15:22.555Z,94205.63
2023-05-21T10:17:49.276Z,94202.16
2023-05-21T10:20:17.870Z,94204.91
2023-05-21T10:22:45.463Z,94207.41
2023-05-21T10:25:13.040Z,94196.47
2023-05-21T10:27:39.508Z,94197.59
2023-05-21T10:30:05.950Z,94196.53
2023-05-21T10:32:32.561Z,94196.19
2023-05-21T10:35:01.329Z,94196.53
2023-05-21T10:37:28.274Z,94195.75
2023-05-21T10:39:55.671Z,94191.19
2023-05-21T10:42:22.668Z,94194.47
2023-05-21T10:44:49.125Z,94185.56
2023-05-21T10:47:15.576Z,94180.88
2023-05-21T10:49:42.102Z,94174.97
2023-05-21T10:52:08.588Z,94176.97
2023-05-21T10:54:35.070Z,94179.34
2023-05-21T10:57:01.600Z,94180.00
2023-05-21T10:59:29.393Z,94176.94
2023-05-21T11:01:57.978Z,94180.84
2023-05-21T11:04:24.469Z,94172.59
2023-05-21T11:06:51.162Z,94180.00
2023-05-21T11:09:17.755Z,94172.28
2023-05-21T11:11:44.757Z,94171.81
2023-05-21T11:14:11.238Z,94171.59
2023-05-21T11:16:37.792Z,94177.78
2023-05-21T11:19:04.425Z,94178.34
2023-05-21T11:21:31.051Z,94170.50
2023-05-21T11:23:58.337Z,94171.31
2023-05-21T11:26:25.918Z,94179.19
2023-05-21T11:28:53.508Z,94177.09
2023-05-21T11:31:21.135Z,94173.88
2023-05-21T11:33:48.710Z,94168.78
2023-05-21T11:36:15.294Z,94169.56
2023-05-21T11:38:41.776Z,94168.00
2023-05-21T11:41:08.235Z,94165.53
2023-05-21T11:43:35.054Z,94172.56
2023-05-21T11:46:01.628Z,94165.31
2023-05-21T11:48:29.399Z,94167.81
2023-05-21T11:50:56.992Z,94168.09
2023-05-21T11:53:24.438Z,94160.56
2023-05-21T11:55:50.921Z,94162.69
2023-05-21T11:58:17.433Z,94170.78
2023-05-21T12:00:43.850Z,94164.06
2023-05-21T12:03:10.533Z,94167.31
2023-05-21T12:05:37.410Z,94167.31
2023-05-21T12:08:03.988Z,94168.66
2023-05-21T12:10:30.855Z,94174.84
2023-05-21T12:12:58.157Z,94165.97
2023-05-21T12:15:24.868Z,94168.66
2023-05-21T12:17:52.371Z,94168.63
2023-05-21T12:20:19.951Z,94161.03
2023-05-21T12:22:46.523Z,94168.63
2023-05-21T12:25:13.016Z,94158.94
2023-05-21T12:27:39.704Z,94160.59
2023-05-21T12:30:07.282Z,94166.50
2023-05-21T12:32:33.756Z,94160.63
2023-05-21T12:35:00.482Z,94166.56
2023-05-21T12:37:26.985Z,94169.25
2023-05-21T12:39:53.458Z,94161.50
2023-05-21T12:42:19.917Z,94171.16
2023-05-21T12:44:46.805Z,94171.16
2023-05-21T12:47:13.293Z,94171.19
2023-05-21T12:49:39.798Z,94174.19
2023-05-21T12:52:06.287Z,94172.84
2023-05-21T12:54:32.745Z,94162.91
2023-05-21T12:56:59.181Z,94166.94
2023-05-21T12:59:25.642Z,94166.16
2023-05-21T13:01:52.132Z,94163.22
2023-05-21T13:04:19.625Z,94168.59
2023-05-21T13:06:47.161Z,94163.75
2023-05-21T13:09:15.731Z,94158.06
2023-05-21T13:11:44.328Z,94152.69
2023-05-21T13:14:11.934Z,94165.13
2023-05-21T13:16:40.510Z,94160.31
2023-05-21T13:19:07.059Z,94154.13
2023-05-21T13:21:34.719Z,94152.53
2023-05-21T13:24:01.230Z,94152.56
2023-05-21T13:26:27.854Z,94156.63
2023-05-21T13:28:54.689Z,94150.72
2023-05-21T13:31:21.185Z,94160.44
2023-05-21T13:33:48.659Z,94159.91
2023-05-21T13:36:16.220Z,94156.69
2023-05-21T13:38:42.822Z,94152.63
2023-05-21T13:41:09.401Z,94160.19
2023-05-21T13:43:35.973Z,94160.72
2023-05-21T13:46:03.590Z,94153.75
2023-05-21T13:48:31.162Z,94158.06
2023-05-21T13:50:58.747Z,94157.28
2023-05-21T13:53:25.369Z,94157.56
2023-05-21T13:55:51.972Z,94160.25
2023-05-21T13:58:19.547Z,94158.38
2023-05-21T14:00:46.162Z,94150.00
2023-05-21T14:03:12.753Z,94152.72
2023-05-21T14:05:40.338Z,94147.34
2023-05-21T14:08:06.909Z,94151.63
2023-05-21T14:10:33.677Z,94145.72
2023-05-21T14:13:07.829Z,94140.88
2023-05-21T14:15:42.156Z,94143.03
2023-05-21T14:18:08.643Z,94141.16
2023-05-21T14:20:36.025Z,94136.31
2023-05-21T14:23:02.500Z,94136.31
2023-05-21T14:25:29.196Z,94134.41
2023-05-21T14:27:56.776Z,94137.38
2023-05-21T14:30:23.234Z,94139.81
2023-05-21T14:32:49.730Z,94145.75
2023-05-21T14:35:16.186Z,94151.16
2023-05-21T14:37:42.637Z,94143.59
2023-05-21T14:40:09.788Z,94142.50
2023-05-21T14:42:36.367Z,94142.00
2023-05-21T14:45:17.553Z,94142.28
2023-05-21T14:47:45.049Z,94147.13
2023-05-21T14:50:11.544Z,94143.63
2023-05-21T14:52:39.774Z,94144.16
2023-05-21T14:55:06.311Z,94137.13
2023-05-21T14:57:32.945Z,94143.84
2023-05-21T15:00:01.546Z,94141.16
2023-05-21T15:02:29.215Z,94140.91
2023-05-21T15:04:56.735Z,94137.94
2023-05-21T15:07:23.225Z,94134.97
2023-05-21T15:09:49.924Z,94134.19
2023-05-21T15:12:16.761Z,94132.78
2023-05-21T15:14:43.242Z,94129.56
2023-05-21T15:17:09.720Z,94130.09
2023-05-21T15:19:36.275Z,94126.59
2023-05-21T15:22:02.818Z,94123.31
2023-05-21T15:24:29.457Z,94123.31
2023-05-21T15:26:55.948Z,94119.00
2023-05-21T15:29:22.542Z,94124.94
2023-05-21T15:31:49.005Z,94127.91
2023-05-21T15:34:15.484Z,94128.72
2023-05-21T15:36:41.965Z,94126.56
2023-05-21T15:39:08.459Z,94126.31
2023-05-21T15:41:35.606Z,94127.66
2023-05-21T15:44:02.050Z,94125.78
2023-05-21T15:46:28.834Z,94121.44
2023-05-21T15:48:57.403Z,94129.28
2023-05-21T15:51:23.992Z,94136.31
2023-05-21T15:53:50.489Z,94132.25
2023-05-21T15:56:17.165Z,94140.34
2023-05-21T15:58:44.809Z,94142.50
2023-05-21T16:01:11.340Z,94139.81
2023-05-21T16:03:37.902Z,94147.09
2023-05-21T16:06:05.521Z,94150.63
2023-05-21T16:08:34.125Z,94150.63
2023-05-21T16:11:00.625Z,94157.91
2023-05-21T16:13:27.325Z,94164.94
2023-05-21T16:15:53.755Z,94157.91
2023-05-21T16:18:20.520Z,94154.66
2023-05-21T16:20:47.011Z,94150.06
2023-05-21T16:23:13.442Z,94153.31
2023-05-21T16:25:40.149Z,94157.88
2023-05-21T16:28:06.865Z,94147.84
2023-05-21T16:30:34.516Z,94145.97
2023-05-21T16:33:02.104Z,94141.38
2023-05-21T16:35:28.673Z,94153.50
2023-05-21T16:37:56.276Z,94145.16
2023-05-21T16:40:23.868Z,94145.47
2023-05-21T16:42:51.447Z,94138.97
2023-05-21T16:45:19.063Z,94135.75
2023-05-21T16:47:45.675Z,94126.28
2023-05-21T16:50:13.228Z,94126.53
2023-05-21T16:52:39.700Z,94137.03
2023-05-21T16:55:07.404Z,94142.69
2023-05-21T16:57:34.002Z,94147.56
2023-05-21T17:00:00.709Z,94141.03
2023-05-21T17:02:28.302Z,94145.09
2023-05-21T17:04:55.776Z,94145.06
2023-05-21T17:07:22.242Z,94146.97
2023-05-21T17:09:48.937Z,94150.97
2023-05-21T17:12:16.602Z,94148.53
2023-05-21T17:14:43.071Z,94151.78
2023-05-21T17:17:09.729Z,94155.84
2023-05-21T17:19:36.275Z,94151.19
2023-05-21T17:22:02.902Z,94154.91
2023-05-21T17:24:29.390Z,94151.63
2023-05-21T17:26:55.867Z,94149.38
2023-05-21T17:29:22.324Z,94150.66
2023-05-21T17:31:49.271Z,94152.72
2023-05-21T17:34:16.818Z,94147.25
2023-05-21T17:36:44.426Z,94157.44
2023-05-21T17:39:10.999Z,94149.78
2023-05-21T17:41:37.427Z,94156.97
2023-05-21T17:44:04.206Z,94152.63
2023-05-21T17:46:31.830Z,94160.69
2023-05-21T17:48:58.365Z,94168.31
2023-05-21T17:51:28.048Z,94167.94
2023-05-21T17:53:55.595Z,94168.72
2023-05-21T17:56:22.041Z,94170.84
2023-05-21T17:58:48.847Z,94178.84
2023-05-21T18:01:16.469Z,94179.06
2023-05-21T18:03:43.158Z,94179.28
2023-05-21T18:06:10.691Z,94177.59
2023-05-21T18:08:37.215Z,94180.50
2023-05-21T18:11:03.884Z,94174.16
2023-05-21T18:13:30.454Z,94176.72
2023-05-21T18:15:56.934Z,94186.47
2023-05-21T18:18:23.406Z,94188.34
2023-05-21T18:20:50.248Z,94182.09
2023-05-21T18:23:16.791Z,94180.84
2023-05-21T18:25:43.447Z,94174.78
2023-05-21T18:28:12.008Z,94186.00
2023-05-21T18:30:40.599Z,94180.97
2023-05-21T18:33:07.162Z,94192.22
2023-05-21T18:35:33.704Z,94190.81
2023-05-21T18:38:00.397Z,94210.69
2023-05-21T18:40:33.743Z,94202.81
2023-05-21T18:43:00.365Z,94211.44
2023-05-21T18:45:28.186Z,94211.88
2023-05-21T18:47:54.820Z,94215.34
2023-05-21T18:50:21.726Z,94209.00
2023-05-21T18:52:48.975Z,94219.69
2023-05-21T18:55:15.575Z,94221.41
2023-05-21T18:57:42.426Z,94232.16
2023-05-21T19:00:08.891Z,94236.47
2023-05-21T19:02:36.371Z,94243.47
2023-05-21T19:05:02.949Z,94250.78
2023-05-21T19:07:30.557Z,94257.28
2023-05-21T19:09:57.219Z,94261.03
2023-05-21T19:12:23.714Z,94264.94
2023-05-21T19:14:50.479Z,94265.78
2023-05-21T19:17:17.990Z,94288.56
2023-05-21T19:19:44.460Z,94296.56
2023-05-21T19:22:10.935Z,94307.81
2023-05-21T19:24:37.409Z,94325.78
2023-05-21T19:27:03.872Z,94354.66
2023-05-21T19:29:30.358Z,94382.56
2023-05-21T19:31:56.822Z,94403.78
2023-05-21T19:34:23.353Z,94432.22
2023-05-21T19:36:53.516Z,94425.28
2023-05-21T19:39:20.533Z,94444.09
2023-05-21T19:41:47.046Z,94451.84
2023-05-21T19:44:13.503Z,94425.97
2023-05-21T19:46:39.946Z,94396.56
2023-05-21T19:49:06.399Z,94380.19
2023-05-21T19:51:32.869Z,94375.13
2023-05-21T19:53:59.330Z,94361.31
2023-05-21T19:56:25.814Z,94366.28
2023-05-21T19:58:52.725Z,94369.81
2023-05-21T20:01:19.210Z,94365.72
2023-05-21T20:03:45.773Z,94364.28
2023-05-21T20:06:12.276Z,94362.25
2023-05-21T20:08:38.714Z,94362.88
2023-05-21T20:11:05.189Z,94364.09
2023-05-21T20:13:31.658Z,94362.88
2023-05-21T20:15:58.121Z,94364.34
2023-05-21T20:18:24.576Z,94358.66
2023-05-21T20:20:51.192Z,94354.78
2023-05-21T20:23:17.775Z,94353.78
2023-05-21T20:25:44.271Z,94357.06
2023-05-21T20:28:10.782Z,94355.63
2023-05-21T20:30:37.404Z,94352.56
2023-05-21T20:33:03.997Z,94351.34
2023-05-21T20:35:30.504Z,94356.44
2023-05-21T20:37:56.931Z,94356.84
2023-05-21T20:40:23.367Z,94365.47
2023-05-21T20:42:49.893Z,94375.28
2023-05-21T20:45:16.340Z,94374.19
2023-05-21T20:47:42.916Z,94374.41
2023-05-21T20:50:09.404Z,94371.53
2023-05-21T20:52:35.841Z,94373.00
2023-05-21T20:55:02.303Z,94365.66
2023-05-21T20:57:28.755Z,94370.78
2023-05-21T20:59:55.182Z,94366.28
2023-05-21T21:02:21.726Z,94367.47
2023-05-21T21:04:48.289Z,94363.63
2023-05-21T21:07:14.768Z,94365.44
2023-05-21T21:09:41.255Z,94367.06
2023-05-21T21:12:24.134Z,94370.16
2023-05-21T21:14:52.158Z,94369.53
2023-05-21T21:17:18.602Z,94366.00
2023-05-21T21:19:45.055Z,94366.00
2023-05-21T21:22:11.522Z,94377.72
2023-05-21T21:24:37.999Z,94376.47
2023-05-21T21:27:04.419Z,94378.28
2023-05-21T21:29:30.879Z,94376.06
2023-05-21T21:31:57.338Z,94374.00
2023-05-21T21:34:23.806Z,94377.06
2023-05-21T21:36:50.251Z,94377.28
2023-05-21T21:39:16.691Z,94376.84
2023-05-21T21:41:43.139Z,94374.41
2023-05-21T21:44:09.595Z,94376.03
2023-05-21T21:46:36.129Z,94378.94
2023-05-21T21:49:02.603Z,94391.41
2023-05-21T21:51:29.064Z,94391.84
2023-05-21T21:53:55.643Z,94398.97
2023-05-21T21:56:22.118Z,94391.59
2023-05-21T21:58:48.595Z,94396.28
2023-05-21T22:01:15.105Z,94385.66
2023-05-21T22:03:41.609Z,94392.41
2023-05-21T22:06:08.063Z,94400.78
2023-05-21T22:08:34.487Z,94404.66
2023-05-21T22:11:00.941Z,94408.97
2023-05-21T22:13:29.280Z,94413.28
2023-05-21T22:15:56.427Z,94418.19
2023-05-21T22:18:35.930Z,94416.13
2023-05-21T22:21:06.457Z,94419.03
2023-05-21T22:23:32.909Z,94419.41
2023-05-21T22:25:59.361Z,94423.72
2023-05-21T22:28:25.806Z,94428.22
2023-05-21T22:30:52.259Z,94431.91
2023-05-21T22:33:18.827Z,94439.06
2023-05-21T22:35:45.314Z,94436.41
2023-05-21T22:38:11.749Z,94426.38
2023-05-21T22:40:38.436Z,94428.63
2023-05-21T22:43:05.022Z,94429.47
2023-05-21T22:45:31.464Z,94430.88
2023-05-21T22:47:58.141Z,94432.97
2023-05-21T22:50:24.574Z,94434.81
2023-05-21T22:52:51.031Z,94440.13
2023-05-21T22:55:17.488Z,94437.84
2023-05-21T22:57:43.944Z,94438.47
2023-05-21T23:00:10.394Z,94438.25
2023-05-21T23:02:36.899Z,94454.66
2023-05-21T23:05:03.502Z,94447.25
2023-05-21T23:07:29.999Z,94448.50
2023-05-21T23:09:56.482Z,94438.69
2023-05-21T23:12:22.923Z,94442.34
2023-05-21T23:14:49.376Z,94438.69
2023-05-21T23:17:15.862Z,94433.75
2023-05-21T23:19:42.365Z,94430.88
2023-05-21T23:22:08.826Z,94430.91
2023-05-21T23:24:35.264Z,94437.66
2023-05-21T23:27:02.012Z,94431.72
2023-05-21T23:29:29.846Z,94435.63
2023-05-21T23:31:56.310Z,94435.03
2023-05-21T23:34:22.774Z,94426.63
2023-05-21T23:36:49.215Z,94432.56
2023-05-21T23:39:15.677Z,94434.59
2023-05-21T23:41:42.152Z,94433.56
2023-05-21T23:44:08.900Z,94428.88
2023-05-21T23:46:35.402Z,94429.88
2023-05-21T23:49:01.891Z,94427.63
2023-05-21T23:51:28.329Z,94421.09
2023-05-21T23:53:54.764Z,94424.34
2023-05-21T23:56:21.198Z,94422.53
2023-05-21T23:58:47.641Z,94416.38
